^^
Station Historical Data
Daily Summary for February 19, 2018 Units:  Metric    English   Both
« Previous Day
Next Day »
Daily Weekly Monthly Yearly Custom
  High: Low: Average:
Temperature: -17.8 °C 13.6 °C 21.1 °C
Dew Point: -17.8 °C -2.1 °C 3.9 °C
Humidity: Humidity% 11% 38%
Wind Speed: 0km/h 0km/h 7.6km/h
Wind Gust: 0km/h - -
Wind- - SW
Pressure: 0 hPa 1006.7 hPa -
Precipitation: 0 mm    
Historical Graphs
 
 
Tabular Data for February 19, 2018
Time Temperature Dew Point Pressure Wind Wind Speed Wind Gust Humidity Rainfall Rate (Hourly) solar Conditions
-17.8 °C -17.8 °C 0 hPa Calm     Humidity% 0 mm SolarRadiationWatts/m^2 W/m2 Conditions
00:03 19 °C 4.7 °C 1009 hPa South 13 km/h 25.7 km/h 39% 0 mm 0.0 W/m2
00:12 18.8 °C 6 °C 1009 hPa SSW 20.9 km/h 24.1 km/h 43% 0 mm 0.0 W/m2
00:22 18.7 °C 6.2 °C 1009.4 hPa SSW 16.3 km/h 24.1 km/h 44% 0 mm 0.0 W/m2
00:27 18.6 °C 6.1 °C 1009.4 hPa SSW 19.5 km/h 22.5 km/h 44% 0 mm 0.0 W/m2
00:32 18.4 °C 6.3 °C 1009.4 hPa SSW 17.7 km/h 22.5 km/h 45% 0 mm 0.0 W/m2
00:38 18.4 °C 6.6 °C 1009.4 hPa SSW 16.3 km/h 16.3 km/h 46% 0 mm 0.0 W/m2
00:48 18.1 °C 7.2 °C 1009.4 hPa South 16.3 km/h 20.9 km/h 49% 0 mm 0.0 W/m2
00:58 17.9 °C 7 °C 1009.4 hPa SSW 20.9 km/h 20.9 km/h 49% 0 mm 0.0 W/m2
01:03 17.9 °C 7.3 °C 1009.4 hPa SSW 13 km/h 19.3 km/h 50% 0 mm 0.0 W/m2
01:13 17.7 °C 7.1 °C 1009.4 hPa SSW 16.3 km/h 24.1 km/h 50% 0 mm 0.0 W/m2
01:18 17.7 °C 7.4 °C 1009.4 hPa SSW 14.3 km/h 19.3 km/h 51% 0 mm 0.0 W/m2
01:23 17.6 °C 7.3 °C 1009.4 hPa SSW 11.1 km/h 20.9 km/h 51% 0 mm 0.0 W/m2
01:38 17.4 °C 7.4 °C 1009.4 hPa South 13 km/h 19.3 km/h 52% 0 mm 0.0 W/m2
01:43 17.3 °C 7.3 °C 1009.4 hPa SSW 17.7 km/h 19.3 km/h 52% 0 mm 0.0 W/m2
01:48 17.3 °C 7.6 °C 1009.4 hPa SSW 17.7 km/h 19.3 km/h 53% 0 mm 0.0 W/m2
01:53 17.2 °C 7.5 °C 1009.4 hPa SSW 11.1 km/h 19.3 km/h 53% 0 mm 0.0 W/m2
01:58 17.2 °C 7.5 °C 1009.4 hPa SSW 17.7 km/h 17.7 km/h 53% 0 mm 0.0 W/m2
02:03 17.1 °C 7.7 °C 1009 hPa SSW 11.1 km/h 17.7 km/h 54% 0 mm 0.0 W/m2
02:09 17.1 °C 7.7 °C 1009 hPa SSW 14.3 km/h 19.3 km/h 54% 0 mm 0.0 W/m2
02:14 17.1 °C 7.7 °C 1009 hPa SSW 13 km/h 16.1 km/h 54% 0 mm 0.0 W/m2
02:20 17.1 °C 7.7 °C 1009 hPa SSW 9.7 km/h 16.1 km/h 54% 0 mm 0.0 W/m2
02:25 17 °C 7.6 °C 1009 hPa South 11.1 km/h 14.5 km/h 54% 0 mm 0.0 W/m2
02:31 17 °C 7.1 °C 1009 hPa South 14.3 km/h 19.3 km/h 52% 0 mm 0.0 W/m2
02:42 16.9 °C 7.5 °C 1009 hPa South 9.7 km/h 14.5 km/h 54% 0 mm 0.0 W/m2
02:52 16.7 °C 7.3 °C 1009 hPa SSW 11.1 km/h 16.1 km/h 54% 0 mm 0.0 W/m2
03:03 16.5 °C 6.9 °C 1009 hPa SSW 13 km/h 13 km/h 53% 0 mm 0.0 W/m2
03:18 16.2 °C 4.3 °C 1009 hPa SSW 7.9 km/h 11.3 km/h 45% 0 mm 0.0 W/m2
03:28 16.1 °C 3.8 °C 1008.7 hPa SSW 9.7 km/h 11.3 km/h 44% 0 mm 0.0 W/m2
03:38 15.9 °C 3.7 °C 1009 hPa SW 7.9 km/h 12.9 km/h 44% 0 mm 0.0 W/m2
03:48 15.7 °C 2.8 °C 1009 hPa SW 7.9 km/h 9.7 km/h 42% 0 mm 0.0 W/m2
03:55 15.6 °C 2.4 °C 1009 hPa SW 9.7 km/h 12.9 km/h 41% 0 mm 0.0 W/m2
04:04 15.5 °C 2.3 °C 1009 hPa SW 9.7 km/h 12.9 km/h 41% 0 mm 0.0 W/m2
04:09 15.5 °C 2.3 °C 1009 hPa SW 9.7 km/h 9.7 km/h 41% 0 mm 0.0 W/m2
04:14 15.5 °C 3 °C 1009 hPa SW 7.9 km/h 11.3 km/h 43% 0 mm 0.0 W/m2
04:19 15.4 °C 4.1 °C 1009 hPa SW 9.7 km/h 11.3 km/h 47% 0 mm 0.0 W/m2
04:29 15.3 °C 4.9 °C 1009 hPa SW 6.4 km/h 9.7 km/h 50% 0 mm 0.0 W/m2
04:39 15.2 °C 4.8 °C 1009 hPa SW 7.9 km/h 9.7 km/h 50% 0 mm 0.0 W/m2
04:44 15.1 °C 4.5 °C 1009.4 hPa SW 3.2 km/h 4.8 km/h 49% 0 mm 0.0 W/m2
04:54 14.9 °C 4 °C 1009.4 hPa SW 3.2 km/h 4.8 km/h 48% 0 mm 0.0 W/m2
05:04 14.7 °C 3.8 °C 1009 hPa SW 7.9 km/h 8 km/h 48% 0 mm 0.0 W/m2
05:09 14.6 °C 4 °C 1009.4 hPa SW 6.4 km/h 9.7 km/h 49% 0 mm 0.0 W/m2
05:14 14.7 °C 4.4 °C 1009.4 hPa SW 6.4 km/h 8 km/h 50% 0 mm 0.0 W/m2
05:19 14.6 °C 4.6 °C 1009.4 hPa SW 6.4 km/h 8 km/h 51% 0 mm 0.0 W/m2
05:24 14.6 °C 4.9 °C 1009.4 hPa SW 6.4 km/h 8 km/h 52% 0 mm 0.0 W/m2
05:30 14.5 °C 5 °C 1009.4 hPa SW 6.4 km/h 8 km/h 53% 0 mm 0.0 W/m2
05:35 14.5 °C 5.3 °C 1009.7 hPa SW 6.4 km/h 8 km/h 54% 0 mm 0.0 W/m2
05:40 14.4 °C 5.7 °C 1009.7 hPa SW 6.4 km/h 8 km/h 56% 0 mm 0.0 W/m2
05:45 14.4 °C 6 °C 1009.7 hPa SW 6.4 km/h 8 km/h 57% 0 mm 0.0 W/m2
05:50 14.3 °C 6.1 °C 1009.7 hPa SW 4.7 km/h 8 km/h 58% 0 mm 0.0 W/m2
05:55 14.3 °C 6.4 °C 1009.7 hPa SW 4.7 km/h 6.4 km/h 59% 0 mm 0.0 W/m2
06:00 14.2 °C 6.3 °C 1009.7 hPa SW 1.4 km/h 4.8 km/h 59% 0 mm 0.0 W/m2
06:05 14.1 °C 6.5 °C 1009.7 hPa Calm     60% 0 mm 0.0 W/m2
06:12 13.9 °C 6.5 °C 1009.7 hPa Calm     61% 0 mm 0.0 W/m2
06:28 13.7 °C 6.8 °C 1009.7 hPa Calm     63% 0 mm 0.0 W/m2
06:39 13.6 °C 6.9 °C 1010 hPa Calm     64% 0 mm 5.0 W/m2
06:52 13.6 °C 7.1 °C 1010 hPa Calm     65% 0 mm 9.0 W/m2
07:08 14 °C 7.3 °C 1010 hPa Calm     64% 0 mm 33.0 W/m2
07:39 15.2 °C 8 °C 1010.4 hPa SW 9.7 km/h 11.3 km/h 62% 0 mm 156.0 W/m2
07:54 15.5 °C 8.2 °C 1010.7 hPa SW 11.1 km/h 12.9 km/h 62% 0 mm 227.0 W/m2
08:09 15.9 °C 7.9 °C 1010.7 hPa SSW 9.7 km/h 11.3 km/h 59% 0 mm 288.0 W/m2
08:22 16.3 °C 8.5 °C 1010.7 hPa SW 7.9 km/h 11.3 km/h 60% 0 mm 348.0 W/m2
08:30 16.6 °C 8.6 °C 1010.7 hPa SW 3.2 km/h 9.7 km/h 59% 0 mm 383.0 W/m2
08:40 16.9 °C 8.6 °C 1010.7 hPa SW 4.7 km/h 9.7 km/h 58% 0 mm 417.0 W/m2
08:45 17 °C 8.7 °C 1010.7 hPa SW 4.7 km/h 8 km/h 58% 0 mm 439.0 W/m2
08:54 17.3 °C 8.4 °C 1010.7 hPa SW 4.7 km/h 9.7 km/h 56% 0 mm 476.0 W/m2
09:04 17.7 °C 8 °C 1010.7 hPa SW 6.4 km/h 9.7 km/h 53% 0 mm 515.0 W/m2
09:09 17.8 °C 8.1 °C 1010.7 hPa SW 7.9 km/h 14.5 km/h 53% 0 mm 533.0 W/m2
09:19 18.2 °C 6.7 °C 1010.7 hPa Calm     47% 0 mm 568.0 W/m2
09:24 18.4 °C 6.6 °C 1010.7 hPa SW 3.2 km/h 9.7 km/h 46% 0 mm 587.0 W/m2
09:31 18.8 °C 6.9 °C 1010.7 hPa Calm     46% 0 mm 603.0 W/m2
09:42 19.2 °C 7 °C 1010.7 hPa Calm     45% 0 mm 635.0 W/m2
09:47 19.5 °C 6.9 °C 1010.7 hPa Calm     44% 0 mm 654.0 W/m2
09:58 19.8 °C 6.5 °C 1010.7 hPa Calm     42% 0 mm 686.0 W/m2
10:10 20.3 °C 6.3 °C 1010.7 hPa Calm     40% 0 mm 719.0 W/m2
10:21 20.8 °C 6.3 °C 1010.7 hPa Calm     39% 0 mm 747.0 W/m2
10:34 21.4 °C 5.3 °C 1010.4 hPa Calm     35% 0 mm 788.0 W/m2
10:42 22.1 °C 4.6 °C 1010.4 hPa Calm     32% 0 mm 817.0 W/m2
10:47 22.7 °C 4.2 °C 1010.4 hPa Calm     30% 0 mm 830.0 W/m2
10:52 23.2 °C 4.2 °C 1010.4 hPa Calm     29% 0 mm 838.0 W/m2
11:02 23.7 °C 4.6 °C 1010.4 hPa Calm     29% 0 mm 851.0 W/m2
11:08 23.8 °C 3.7 °C 1010.4 hPa Calm     27% 0 mm 861.0 W/m2
11:22 24.9 °C 1.1 °C 1010 hPa Calm     21% 0 mm 891.0 W/m2
11:33 25.1 °C 1.2 °C 1010 hPa Calm     21% 0 mm 907.0 W/m2
11:50 25.8 °C 1.8 °C 1010 hPa Calm     21% 0 mm 932.0 W/m2
12:06 26.1 °C 0.7 °C 1010 hPa Calm     19% 0 mm 951.0 W/m2
12:22 27.2 °C 1.6 °C 1009.7 hPa Calm     19% 0 mm 967.0 W/m2
12:39 27.5 °C 2.5 °C 1009.7 hPa Calm     20% 0 mm 976.0 W/m2
12:59 28.3 °C 1.7 °C 1009 hPa Calm   3.2 km/h 18% 0 mm 984.0 W/m2
13:11 28.6 °C 2 °C 1009 hPa Calm     18% 0 mm 984.0 W/m2
13:37 29.4 °C 1.8 °C 1009 hPa Calm     17% 0 mm 974.0 W/m2
13:51 29.4 °C 0.1 °C 1009 hPa WNW 3.2 km/h 16.1 km/h 15% 0 mm 967.0 W/m2
14:03 30.1 °C -0.3 °C 1009 hPa WNW 3.2 km/h 8 km/h 14% 0 mm 956.0 W/m2
14:09 30.1 °C -0.3 °C 1008.7 hPa WNW 16.3 km/h 17.7 km/h 14% 0 mm 953.0 W/m2
14:22 30.2 °C -0.3 °C 1008.7 hPa WNW 3.2 km/h 3.2 km/h 14% 0 mm 935.0 W/m2
14:36 30.3 °C -0.2 °C 1008.4 hPa Calm   12.9 km/h 14% 0 mm 916.0 W/m2
14:48 30.8 °C -0.8 °C 1008.4 hPa Calm     13% 0 mm 896.0 W/m2
15:01 31.3 °C -0.4 °C 1008.4 hPa WNW 7.9 km/h 12.9 km/h 13% 0 mm 868.0 W/m2
15:11 31.4 °C -1.4 °C 1008.4 hPa WNW 6.4 km/h 16.1 km/h 12% 0 mm 840.0 W/m2
15:20 31.2 °C -0.5 °C 1008 hPa Calm     13% 0 mm 817.0 W/m2
15:29 32 °C -2.1 °C 1008 hPa WNW 17.7 km/h 19.3 km/h 11% 0 mm 796.0 W/m2
15:33 31.8 °C -1.1 °C 1008 hPa WNW 13 km/h 17.7 km/h 12% 0 mm 782.0 W/m2
15:40 31.6 °C -1.3 °C 1008 hPa WNW 7.9 km/h 9.7 km/h 12% 0 mm 765.0 W/m2
15:43 31.7 °C -1.2 °C 1008 hPa Calm     12% 0 mm 749.0 W/m2
15:46 31.7 °C -1.2 °C 1008 hPa Calm     12% 0 mm 749.0 W/m2
15:58 32.3 °C -1.9 °C 1007.7 hPa WNW 3.2 km/h 24.1 km/h 11% 0 mm 728.0 W/m2
16:14 32.4 °C -1.8 °C 1007.3 hPa WNW 9.7 km/h 17.7 km/h 11% 0 mm 677.0 W/m2
16:29 32.7 °C -1.6 °C 1007 hPa WNW 1.4 km/h 11.3 km/h 11% 0 mm 624.0 W/m2
16:38 32.8 °C -0.3 °C 1007 hPa Calm   6.4 km/h 12% 0 mm 577.0 W/m2
16:53 32.7 °C -0.4 °C 1007 hPa WNW 1.4 km/h 3.2 km/h 12% 0 mm 526.0 W/m2
17:14 33.3 °C 0 °C 1007 hPa WNW 9.7 km/h 9.7 km/h 12% 0 mm 471.0 W/m2
17:31 32.9 °C 0.8 °C 1006.7 hPa WNW 16.3 km/h 17.7 km/h 13% 0 mm 413.0 W/m2
17:45 32.6 °C 0.6 °C 1006.7 hPa West 4.7 km/h 16.1 km/h 13% 0 mm 357.0 W/m2
17:55 32.6 °C -0.5 °C 1006.7 hPa WSW 9.7 km/h 17.7 km/h 12% 0 mm 301.0 W/m2
18:12 32.6 °C -0.5 °C 1006.7 hPa SW 16.3 km/h 17.7 km/h 12% 0 mm 244.0 W/m2
18:23 32.2 °C -0.8 °C 1006.7 hPa SSW 14.3 km/h 20.9 km/h 12% 0 mm 197.0 W/m2
18:35 32.1 °C -0.9 °C 1006.7 hPa SSW 14.3 km/h 19.3 km/h 12% 0 mm 148.0 W/m2
18:49 31.6 °C 0.9 °C 1007 hPa SSW 19.5 km/h 24.1 km/h 14% 0 mm 86.0 W/m2
18:58 31.2 °C 1.5 °C 1007 hPa South 20.9 km/h 25.7 km/h 15% 0 mm 51.0 W/m2
19:05 30.7 °C 1.1 °C 1007 hPa SSW 28.8 km/h 29 km/h 15% 0 mm 23.0 W/m2
19:11 30.4 °C 1.8 °C 1007.3 hPa South 20.9 km/h 29 km/h 16% 0 mm 14.0 W/m2
19:16 30.2 °C 1.6 °C 1007.3 hPa South 22.7 km/h 27.4 km/h 16% 0 mm 12.0 W/m2
Canyon Roadhouse, Fishriver Canyon, Namibia
Compliments of Weather Underground - 2.25 mb